메인 페이지
METAR-TAF:

METAR-TAF

공항 :

이스탄불 이스탄불, 터키

아타튀르크 국제공항

위도: 40-58N, 경도: 028-49E, 고도: 48m

현재 날씨관측

예보는 31분 전, 18:50시(UTC)에 발표되었습니다.
남남서12kt
온도 9°C
습도 61%
기압 1017 hPa
시정 10km 이상
1500m 미만 상공 구름 및 적란운 없음

METAR: LTBA 191850Z 20012KT CAVOK 09/02 Q1017 NOSIG RMK RWY17L 21011KT RWY05 19011KT RWY23 22013KT

시각: 22:21 (19:21 UTC)

예보

예보는 2 시간 41분 전, 16:40시(UTC)에 발표되었습니다.
예보 대상 시간: 19일 18시부터 20일 24시까지 (UTC)
12kt
시정 10km 이상
1500m 미만 상공 구름 및 적란운 없음
전환 중
20일 02시부터 20일 06시까지 (UTC)
고도 4000ft 상공 구름 조금
고도 10000ft 상공 구름 많음
전환 중
20일 09시부터 20일 12시까지 (UTC)
남서15kt, 순간 최대 풍속 25kt
전환 중
20일 14시부터 20일 17시까지 (UTC)
남서20kt, 순간 최대 풍속 35kt

TAF: LTBA 191640Z 1918/2024 18012KT CAVOK BECMG 2002/2006 FEW040 BKN100 BECMG 2009/2012 22015G25KT BECMG 2014/2017 22020G35KT

4,000개 이상의 공항 관측 자료 및 예보 (METAR 및 TAF 보고).

지도상에서 검색 가능한 기상관측소가 노란 점과 빨간 점으로 표시되어 있습니다.

기상관측소 명을 보려면 표시 위로 마우스를 이동하세요.

날씨 관측과 예보를 보려면 클릭하세요.

지도 변경 : 확대하려면 엑스 표시가 있는 녹색 버튼, 축소하려면 빼기 표시가 있는 녹색 버튼, 다음 페이지의 지도를 보려면 녹색 화살표를 클릭하세요.


METAR-TAF: